createdAt,value
2023-01-11T00:00:14.497Z,5.83
2023-01-11T00:01:14.484Z,5.94
2023-01-11T00:02:14.500Z,5.94
2023-01-11T00:03:14.464Z,5.85
2023-01-11T00:04:14.508Z,5.83
2023-01-11T00:05:14.486Z,5.86
2023-01-11T00:06:14.459Z,5.79
2023-01-11T00:07:14.449Z,5.86
2023-01-11T00:08:14.410Z,5.91
2023-01-11T00:09:14.404Z,5.65
2023-01-11T00:10:14.403Z,5.90
2023-01-11T00:11:14.396Z,5.76
2023-01-11T00:12:14.429Z,5.82
2023-01-11T00:13:14.372Z,5.78
2023-01-11T00:14:14.348Z,5.72
2023-01-11T00:15:14.352Z,5.79
2023-01-11T00:16:14.422Z,5.78
2023-01-11T00:17:14.408Z,5.82
2023-01-11T00:18:14.328Z,5.85
2023-01-11T00:19:14.321Z,5.78
2023-01-11T00:20:14.308Z,5.90
2023-01-11T00:21:14.282Z,5.89
2023-01-11T00:22:14.279Z,5.90
2023-01-11T00:23:17.361Z,5.90
2023-01-11T00:24:14.276Z,5.85
2023-01-11T00:25:14.248Z,5.89
2023-01-11T00:26:14.245Z,5.97
2023-01-11T00:27:14.234Z,6.03
2023-01-11T00:28:14.249Z,5.94
2023-01-11T00:29:14.225Z,5.96
2023-01-11T00:30:14.543Z,5.90
2023-01-11T00:31:14.283Z,5.96
2023-01-11T00:32:14.192Z,5.97
2023-01-11T00:33:14.213Z,6.06
2023-01-11T00:34:14.166Z,6.06
2023-01-11T00:35:14.195Z,6.00
2023-01-11T00:36:14.149Z,6.06
2023-01-11T00:37:14.142Z,6.04
2023-01-11T00:38:14.133Z,6.01
2023-01-11T00:39:14.136Z,6.03
2023-01-11T00:40:14.163Z,6.15
2023-01-11T00:41:14.126Z,6.03
2023-01-11T00:42:14.105Z,6.01
2023-01-11T00:43:14.072Z,6.08
2023-01-11T00:44:14.108Z,6.04
2023-01-11T00:45:14.070Z,6.01
2023-01-11T00:46:14.117Z,6.06
2023-01-11T00:47:14.047Z,6.09
2023-01-11T00:48:14.039Z,6.06
2023-01-11T00:49:14.051Z,6.11
2023-01-11T00:50:14.019Z,6.09
2023-01-11T00:51:13.991Z,6.08
2023-01-11T00:52:13.986Z,6.08
2023-01-11T00:53:13.993Z,6.15
2023-01-11T00:54:13.971Z,6.01
2023-01-11T00:55:14.004Z,6.15
2023-01-11T00:56:13.956Z,6.06
2023-01-11T00:57:13.949Z,6.11
2023-01-11T00:58:13.935Z,6.09
2023-01-11T00:59:13.994Z,6.19
2023-01-11T01:00:13.929Z,6.15
2023-01-11T01:01:13.920Z,6.19
2023-01-11T01:02:13.920Z,6.17
2023-01-11T01:03:13.926Z,6.15
2023-01-11T01:04:13.905Z,6.22
2023-01-11T01:05:13.879Z,6.15
2023-01-11T01:06:13.860Z,6.25
2023-01-11T01:07:13.880Z,6.22
2023-01-11T01:08:13.875Z,6.19
2023-01-11T01:09:13.837Z,6.19
2023-01-11T01:10:13.850Z,6.19
2023-01-11T01:11:13.811Z,6.17
2023-01-11T01:12:13.830Z,6.18
2023-01-11T01:13:13.817Z,6.21
2023-01-11T01:14:13.822Z,6.22
2023-01-11T01:15:13.792Z,6.27
2023-01-11T01:16:13.795Z,6.37
2023-01-11T01:17:13.763Z,6.30
2023-01-11T01:18:13.765Z,6.36
2023-01-11T01:19:13.752Z,6.36
2023-01-11T01:20:13.770Z,6.21
2023-01-11T01:21:13.725Z,6.43
2023-01-11T01:22:13.717Z,6.37
2023-01-11T01:23:13.692Z,6.41
2023-01-11T01:24:13.713Z,6.40
2023-01-11T01:25:13.670Z,6.30
2023-01-11T01:26:13.650Z,6.36
2023-01-11T01:27:13.659Z,6.33
2023-01-11T01:28:13.653Z,6.37
2023-01-11T01:29:13.643Z,6.36
2023-01-11T01:30:13.643Z,6.36
2023-01-11T01:31:13.678Z,6.31
2023-01-11T01:32:13.604Z,6.36
2023-01-11T01:33:45.473Z,6.43
2023-01-11T01:34:13.570Z,6.40
2023-01-11T01:35:13.565Z,6.48
2023-01-11T01:36:13.540Z,6.44
2023-01-11T01:37:13.546Z,6.38
2023-01-11T01:38:13.530Z,6.33
2023-01-11T01:39:13.517Z,6.41
2023-01-11T01:40:13.508Z,6.40
2023-01-11T01:41:13.489Z,6.43
2023-01-11T01:42:13.500Z,6.36
2023-01-11T01:43:13.469Z,6.40
2023-01-11T01:44:13.464Z,6.46
2023-01-11T01:45:13.472Z,6.38
2023-01-11T01:46:13.494Z,6.48
2023-01-11T01:47:13.422Z,6.48
2023-01-11T01:48:13.424Z,6.52
2023-01-11T01:49:13.411Z,6.48
2023-01-11T01:50:13.421Z,6.48
2023-01-11T01:51:13.416Z,6.52
2023-01-11T01:52:13.425Z,6.49
2023-01-11T01:53:13.375Z,6.56
2023-01-11T01:54:13.355Z,6.54
2023-01-11T01:55:13.355Z,6.55
2023-01-11T01:56:13.353Z,6.55
2023-01-11T01:57:13.364Z,6.51
2023-01-11T01:58:13.357Z,6.59
2023-01-11T01:59:13.339Z,6.56
2023-01-11T02:00:13.298Z,6.51
2023-01-11T02:01:13.293Z,6.49
2023-01-11T02:02:13.341Z,6.52
2023-01-11T02:03:13.318Z,6.59
2023-01-11T02:04:13.279Z,6.52
2023-01-11T02:05:13.249Z,6.62
2023-01-11T02:06:13.234Z,6.59
2023-01-11T02:07:13.231Z,6.55
2023-01-11T02:08:13.234Z,6.59
2023-01-11T02:09:13.220Z,6.64
2023-01-11T02:10:13.274Z,6.62
2023-01-11T02:11:13.197Z,6.64
2023-01-11T02:12:13.185Z,6.67
2023-01-11T02:13:13.182Z,6.62
2023-01-11T02:14:13.178Z,6.56
2023-01-11T02:15:13.193Z,6.54
2023-01-11T02:16:13.187Z,6.55
2023-01-11T02:17:13.148Z,6.61
2023-01-11T02:18:13.127Z,6.62
2023-01-11T02:19:13.124Z,6.55
2023-01-11T02:20:13.127Z,6.58
2023-01-11T02:21:13.122Z,6.66
2023-01-11T02:22:13.104Z,6.59
2023-01-11T02:23:13.084Z,6.61
2023-01-11T02:24:13.084Z,6.62
2023-01-11T02:25:13.087Z,6.70
2023-01-11T02:26:13.060Z,6.69
2023-01-11T02:27:13.049Z,6.77
2023-01-11T02:28:13.041Z,6.67
2023-01-11T02:29:13.033Z,6.84
2023-01-11T02:30:13.018Z,6.70
2023-01-11T02:31:13.070Z,6.70
2023-01-11T02:32:12.985Z,6.59
2023-01-11T02:33:12.976Z,6.76
2023-01-11T02:34:12.971Z,6.69
2023-01-11T02:35:12.990Z,6.66
2023-01-11T02:36:12.961Z,6.69
2023-01-11T02:37:12.955Z,6.71
2023-01-11T02:38:12.930Z,6.70
2023-01-11T02:39:12.934Z,6.71
2023-01-11T02:40:12.960Z,6.77
2023-01-11T02:41:12.908Z,6.79
2023-01-11T02:42:12.912Z,6.84
2023-01-11T02:43:12.879Z,6.81
2023-01-11T02:44:12.879Z,6.74
2023-01-11T02:45:12.870Z,6.73
2023-01-11T02:46:12.898Z,6.77
2023-01-11T02:47:12.863Z,6.70
2023-01-11T02:48:12.858Z,6.76
2023-01-11T02:49:12.817Z,6.79
2023-01-11T02:50:12.819Z,6.77
2023-01-11T02:51:12.814Z,6.76
2023-01-11T02:52:12.831Z,6.79
2023-01-11T02:53:12.788Z,6.87
2023-01-11T02:54:12.787Z,6.89
2023-01-11T02:55:12.774Z,6.84
2023-01-11T02:56:12.773Z,6.84
2023-01-11T02:57:12.773Z,6.85
2023-01-11T02:58:12.764Z,6.87
2023-01-11T02:59:12.754Z,6.87
2023-01-11T03:00:12.721Z,6.88
2023-01-11T03:01:12.719Z,6.76
2023-01-11T03:02:12.724Z,6.89
2023-01-11T03:03:12.724Z,6.92
2023-01-11T03:04:12.685Z,6.95
2023-01-11T03:05:12.711Z,6.89
2023-01-11T03:06:12.675Z,6.88
2023-01-11T03:07:12.691Z,6.85
2023-01-11T03:08:12.654Z,6.89
2023-01-11T03:09:12.637Z,6.79
2023-01-11T03:10:12.625Z,6.81
2023-01-11T03:11:12.644Z,6.92
2023-01-11T03:12:12.612Z,6.95
2023-01-11T03:13:12.595Z,6.95
2023-01-11T03:14:12.597Z,6.99
2023-01-11T03:15:12.584Z,6.89
2023-01-11T03:16:12.667Z,6.89
2023-01-11T03:17:12.580Z,6.85
2023-01-11T03:18:12.571Z,6.97
2023-01-11T03:19:12.553Z,7.02
2023-01-11T03:20:12.543Z,6.92
2023-01-11T03:21:12.530Z,6.95
2023-01-11T03:22:12.502Z,7.02
2023-01-11T03:23:13.528Z,6.85
2023-01-11T03:24:12.493Z,6.97
2023-01-11T03:25:12.482Z,6.97
2023-01-11T03:26:12.470Z,6.99
2023-01-11T03:27:12.518Z,6.97
2023-01-11T03:28:12.479Z,6.99
2023-01-11T03:29:12.449Z,7.05
2023-01-11T03:30:12.428Z,7.09
2023-01-11T03:31:12.540Z,6.99
2023-01-11T03:32:12.442Z,7.06
2023-01-11T03:33:12.408Z,7.05
2023-01-11T03:34:12.391Z,7.03
2023-01-11T03:35:12.396Z,7.06
2023-01-11T03:36:12.400Z,7.07
2023-01-11T03:37:12.386Z,7.17
2023-01-11T03:38:12.358Z,7.09
2023-01-11T03:39:12.357Z,7.09
2023-01-11T03:40:12.336Z,7.09
2023-01-11T03:41:12.345Z,7.10
2023-01-11T03:42:12.337Z,7.10
2023-01-11T03:43:12.335Z,7.06
2023-01-11T03:44:12.318Z,7.03
2023-01-11T03:45:12.279Z,7.12
2023-01-11T03:46:12.306Z,7.16
2023-01-11T03:47:12.271Z,7.15
2023-01-11T03:48:12.265Z,7.15
2023-01-11T03:49:12.278Z,7.12
2023-01-11T03:50:12.247Z,7.16
2023-01-11T03:51:12.246Z,7.17
2023-01-11T03:52:12.250Z,7.21
2023-01-11T03:53:12.217Z,7.24
2023-01-11T03:54:12.249Z,7.16
2023-01-11T03:55:12.199Z,7.20
2023-01-11T03:56:12.236Z,7.21
2023-01-11T03:57:12.179Z,7.23
2023-01-11T03:58:12.160Z,7.31
2023-01-11T03:59:12.153Z,7.16
2023-01-11T04:00:12.157Z,7.23
2023-01-11T04:01:12.223Z,7.17
2023-01-11T04:02:12.127Z,7.17
2023-01-11T04:03:12.115Z,7.31
2023-01-11T04:04:12.119Z,7.15
2023-01-11T04:05:12.093Z,7.20
2023-01-11T04:06:12.101Z,7.23
2023-01-11T04:07:12.101Z,7.24
2023-01-11T04:08:12.072Z,7.23
2023-01-11T04:09:12.063Z,7.16
2023-01-11T04:10:12.062Z,7.25
2023-01-11T04:11:12.040Z,7.27
2023-01-11T04:12:12.062Z,7.32
2023-01-11T04:13:12.035Z,7.35
2023-01-11T04:14:12.062Z,7.31
2023-01-11T04:15:12.007Z,7.32
2023-01-11T04:16:12.057Z,7.35
2023-01-11T04:17:11.991Z,7.39
2023-01-11T04:18:11.983Z,7.42
2023-01-11T04:19:11.981Z,7.39
2023-01-11T04:20:11.965Z,7.43
2023-01-11T04:21:11.956Z,7.35
2023-01-11T04:22:11.945Z,7.34
2023-01-11T04:23:11.934Z,7.45
2023-01-11T04:24:11.941Z,7.37
2023-01-11T04:25:11.940Z,7.35
2023-01-11T04:26:11.901Z,7.35
2023-01-11T04:27:11.890Z,7.34
2023-01-11T04:28:11.878Z,7.40
2023-01-11T04:29:11.880Z,7.32
2023-01-11T04:30:11.895Z,7.35
2023-01-11T04:31:11.914Z,7.39
2023-01-11T04:32:11.828Z,7.46
2023-01-11T04:33:11.834Z,7.37
2023-01-11T04:34:11.857Z,7.40
2023-01-11T04:35:11.829Z,7.39
2023-01-11T04:36:11.815Z,7.52
2023-01-11T04:37:11.816Z,7.39
2023-01-11T04:38:11.808Z,7.48
2023-01-11T04:39:11.785Z,7.42
2023-01-11T04:40:11.784Z,7.45
2023-01-11T04:41:11.748Z,7.58
2023-01-11T04:42:11.738Z,7.58
2023-01-11T04:43:11.732Z,7.49
2023-01-11T04:44:11.724Z,7.46
2023-01-11T04:45:11.733Z,7.48
2023-01-11T04:46:11.720Z,7.49
2023-01-11T04:47:11.693Z,7.48
2023-01-11T04:48:11.701Z,7.58
2023-01-11T04:49:11.701Z,7.49
2023-01-11T04:50:11.727Z,7.52
2023-01-11T04:51:11.669Z,7.49
2023-01-11T04:52:11.657Z,7.49
2023-01-11T04:53:11.662Z,7.52
2023-01-11T04:54:11.653Z,7.50
2023-01-11T04:55:11.622Z,7.52
2023-01-11T04:56:11.599Z,7.48
2023-01-11T04:57:11.613Z,7.57
2023-01-11T04:58:11.606Z,7.50
2023-01-11T04:59:11.601Z,7.55
2023-01-11T05:00:11.570Z,7.50
2023-01-11T05:01:11.621Z,7.52
2023-01-11T05:02:11.555Z,7.48
2023-01-11T05:03:11.533Z,7.64
2023-01-11T05:04:13.484Z,7.61
2023-01-11T05:05:12.556Z,7.52
2023-01-11T05:06:11.511Z,7.69
2023-01-11T05:07:11.501Z,7.67
2023-01-11T05:08:11.506Z,7.48
2023-01-11T05:09:11.484Z,7.57
2023-01-11T05:10:11.493Z,7.50
2023-01-11T05:11:11.469Z,7.61
2023-01-11T05:12:11.450Z,7.60
2023-01-11T05:13:11.440Z,7.55
2023-01-11T05:14:11.448Z,7.52
2023-01-11T05:15:11.443Z,7.57
2023-01-11T05:16:11.427Z,7.50
2023-01-11T05:17:11.416Z,7.53
2023-01-11T05:18:11.389Z,7.50
2023-01-11T05:19:11.379Z,7.60
2023-01-11T05:20:11.380Z,7.64
2023-01-11T05:21:11.361Z,7.53
2023-01-11T05:22:11.356Z,7.55
2023-01-11T05:23:11.335Z,7.53
2023-01-11T05:24:11.354Z,7.67
2023-01-11T05:25:11.353Z,7.67
2023-01-11T05:26:11.308Z,7.61
2023-01-11T05:27:11.366Z,7.53
2023-01-11T05:28:11.303Z,7.61
2023-01-11T05:29:11.283Z,7.64
2023-01-11T05:30:11.257Z,7.60
2023-01-11T05:31:11.262Z,7.67
2023-01-11T05:32:11.285Z,7.64
2023-01-11T05:33:11.262Z,7.68
2023-01-11T05:34:11.235Z,7.60
2023-01-11T05:35:11.210Z,7.67
2023-01-11T05:36:11.239Z,7.64
2023-01-11T05:37:11.235Z,7.71
2023-01-11T05:38:11.213Z,7.64
2023-01-11T05:39:11.182Z,7.74
2023-01-11T05:40:11.174Z,7.68
2023-01-11T05:41:11.183Z,7.67
2023-01-11T05:42:11.166Z,7.69
2023-01-11T05:43:11.176Z,7.71
2023-01-11T05:44:11.137Z,7.75
2023-01-11T05:45:11.124Z,7.71
2023-01-11T05:46:12.193Z,7.79
2023-01-11T05:47:11.121Z,7.77
2023-01-11T05:48:11.104Z,7.82
2023-01-11T05:49:11.095Z,7.72
2023-01-11T05:50:11.073Z,7.86
2023-01-11T05:51:11.078Z,7.86
2023-01-11T05:52:11.086Z,7.77
2023-01-11T05:53:11.052Z,7.87
2023-01-11T05:54:11.069Z,7.89
2023-01-11T05:55:11.024Z,7.80
2023-01-11T05:56:12.029Z,7.82
2023-01-11T05:57:11.009Z,7.93
2023-01-11T05:58:11.011Z,7.92
2023-01-11T05:59:11.007Z,7.80
2023-01-11T06:00:11.008Z,7.93
2023-01-11T06:01:11.001Z,7.90
2023-01-11T06:02:11.080Z,7.89
2023-01-11T06:03:11.011Z,8.02
2023-01-11T06:04:10.948Z,7.95
2023-01-11T06:05:10.985Z,8.05
2023-01-11T06:06:10.928Z,8.05
2023-01-11T06:07:10.930Z,8.04
2023-01-11T06:08:10.923Z,8.01
2023-01-11T06:09:10.909Z,7.95
2023-01-11T06:10:10.897Z,8.04
2023-01-11T06:11:10.881Z,8.07
2023-01-11T06:12:10.861Z,8.12
2023-01-11T06:13:10.868Z,8.10
2023-01-11T06:14:10.869Z,8.19
2023-01-11T06:15:10.841Z,8.12
2023-01-11T06:16:10.840Z,8.15
2023-01-11T06:17:10.817Z,8.05
2023-01-11T06:18:10.809Z,8.19
2023-01-11T06:19:10.822Z,8.15
2023-01-11T06:20:10.777Z,8.29
2023-01-11T06:21:10.775Z,8.16
2023-01-11T06:22:11.791Z,8.18
2023-01-11T06:23:10.751Z,8.16
2023-01-11T06:24:10.784Z,8.30
2023-01-11T06:25:10.780Z,8.25
2023-01-11T06:26:10.754Z,8.29
2023-01-11T06:27:10.719Z,8.23
2023-01-11T06:28:10.719Z,8.22
2023-01-11T06:29:10.694Z,8.20
2023-01-11T06:30:10.681Z,8.28
2023-01-11T06:31:10.743Z,8.26
2023-01-11T06:32:10.695Z,8.29
2023-01-11T06:33:10.663Z,8.34
2023-01-11T06:34:10.641Z,8.33
2023-01-11T06:35:10.655Z,8.37
2023-01-11T06:36:10.649Z,8.30
2023-01-11T06:37:10.653Z,8.26
2023-01-11T06:38:10.594Z,8.36
2023-01-11T06:39:10.642Z,8.25
2023-01-11T06:40:10.663Z,8.30
2023-01-11T06:41:10.611Z,8.28
2023-01-11T06:42:10.568Z,8.26
2023-01-11T06:43:10.566Z,8.30
2023-01-11T06:44:10.583Z,8.37
2023-01-11T06:45:10.545Z,8.25
2023-01-11T06:46:10.602Z,8.28
2023-01-11T06:47:10.518Z,8.34
2023-01-11T06:48:10.513Z,8.30
2023-01-11T06:49:10.521Z,8.30
2023-01-11T06:50:10.491Z,8.47
2023-01-11T06:51:10.500Z,8.34
2023-01-11T06:52:10.490Z,8.41
2023-01-11T06:53:10.466Z,8.36
2023-01-11T06:54:10.454Z,8.29
2023-01-11T06:55:10.450Z,8.38
2023-01-11T06:56:10.439Z,8.38
2023-01-11T06:57:10.459Z,8.41
2023-01-11T06:58:10.414Z,8.43
2023-01-11T06:59:10.423Z,8.45
2023-01-11T07:00:10.402Z,8.45
2023-01-11T07:01:10.473Z,8.41
2023-01-11T07:02:10.409Z,8.40
2023-01-11T07:03:10.370Z,8.47
2023-01-11T07:04:10.357Z,8.43
2023-01-11T07:05:10.361Z,8.44
2023-01-11T07:06:10.357Z,8.48
2023-01-11T07:07:10.350Z,8.48
2023-01-11T07:08:10.308Z,8.44
2023-01-11T07:09:10.303Z,8.47
2023-01-11T07:10:10.293Z,8.45
2023-01-11T07:11:10.377Z,8.44
2023-01-11T07:12:10.331Z,8.43
2023-01-11T07:13:10.268Z,8.40
2023-01-11T07:14:10.259Z,8.47
2023-01-11T07:15:10.270Z,8.29
2023-01-11T07:16:10.382Z,8.41
2023-01-11T07:17:10.246Z,8.34
2023-01-11T07:18:10.229Z,8.22
2023-01-11T07:19:10.236Z,8.36
2023-01-11T07:20:10.199Z,8.33
2023-01-11T07:21:10.230Z,8.38
2023-01-11T07:22:10.182Z,8.38
2023-01-11T07:23:10.183Z,8.29
2023-01-11T07:24:10.167Z,8.29
2023-01-11T07:25:10.165Z,8.30
2023-01-11T07:26:10.172Z,8.29
2023-01-11T07:27:10.161Z,8.36
2023-01-11T07:28:10.127Z,8.28
2023-01-11T07:29:10.115Z,8.28
2023-01-11T07:30:10.143Z,8.22
2023-01-11T07:31:10.166Z,8.37
2023-01-11T07:32:10.123Z,8.36
2023-01-11T07:33:10.085Z,8.33
2023-01-11T07:34:41.968Z,8.45
2023-01-11T07:35:10.066Z,8.34
2023-01-11T07:36:10.064Z,8.37
2023-01-11T07:37:29.146Z,8.36
2023-01-11T07:38:11.068Z,8.41
2023-01-11T07:39:10.023Z,8.37
2023-01-11T07:40:10.019Z,8.44
2023-01-11T07:41:10.005Z,8.36
2023-01-11T07:42:10.986Z,8.47
2023-01-11T07:43:10.016Z,8.48
2023-01-11T07:44:09.985Z,8.43
2023-01-11T07:45:09.969Z,8.43
2023-01-11T07:46:09.996Z,8.36
2023-01-11T07:47:09.977Z,8.37
2023-01-11T07:48:09.940Z,8.47
2023-01-11T07:49:09.946Z,8.40
2023-01-11T07:50:09.912Z,8.45
2023-01-11T07:51:09.940Z,8.48
2023-01-11T07:52:09.912Z,8.43
2023-01-11T07:53:09.884Z,8.40
2023-01-11T07:54:09.874Z,8.40
2023-01-11T07:55:09.895Z,8.47
2023-01-11T07:56:09.880Z,8.56
2023-01-11T07:57:09.839Z,8.43
2023-01-11T07:58:09.871Z,8.48
2023-01-11T07:59:09.857Z,8.47
2023-01-11T08:00:09.815Z,8.50
2023-01-11T08:01:10.804Z,8.43
2023-01-11T08:02:09.813Z,8.55
2023-01-11T08:03:10.028Z,8.43
2023-01-11T08:04:09.778Z,8.52
2023-01-11T08:05:09.768Z,8.55
2023-01-11T08:06:09.770Z,8.55
2023-01-11T08:07:09.766Z,8.53
2023-01-11T08:08:09.725Z,8.58
2023-01-11T08:09:09.713Z,8.59
2023-01-11T08:10:09.707Z,8.58
2023-01-11T08:11:09.717Z,8.58
2023-01-11T08:12:09.695Z,8.68
2023-01-11T08:13:09.732Z,8.59
2023-01-11T08:14:09.676Z,8.71
2023-01-11T08:15:09.675Z,8.52
2023-01-11T08:16:09.706Z,8.63
2023-01-11T08:17:09.676Z,8.59
2023-01-11T08:18:09.676Z,8.61
2023-01-11T08:19:09.645Z,8.61
2023-01-11T08:20:09.626Z,8.61
2023-01-11T08:21:09.614Z,8.63
2023-01-11T08:22:10.600Z,8.65
2023-01-11T08:23:09.618Z,8.73
2023-01-11T08:24:09.604Z,8.71
2023-01-11T08:25:09.583Z,8.77
2023-01-11T08:26:09.604Z,8.76
2023-01-11T08:27:09.616Z,8.80
2023-01-11T08:28:09.543Z,8.80
2023-01-11T08:29:10.555Z,8.79
2023-01-11T08:30:09.538Z,8.77
2023-01-11T08:31:09.606Z,8.79
2023-01-11T08:32:09.536Z,8.71
2023-01-11T08:33:09.516Z,8.71
2023-01-11T08:34:09.474Z,8.76
2023-01-11T08:35:09.469Z,8.80
2023-01-11T08:36:10.198Z,8.79
2023-01-11T08:37:09.472Z,8.77
2023-01-11T08:38:09.494Z,8.79
2023-01-11T08:39:09.446Z,8.74
2023-01-11T08:40:09.448Z,8.81
2023-01-11T08:41:09.415Z,8.73
2023-01-11T08:42:09.425Z,8.80
2023-01-11T08:43:09.383Z,8.80
2023-01-11T08:44:09.378Z,8.76
2023-01-11T08:45:09.388Z,8.84
2023-01-11T08:46:09.458Z,8.79
2023-01-11T08:47:09.378Z,8.80
2023-01-11T08:48:09.342Z,8.84
2023-01-11T08:49:09.342Z,8.87
2023-01-11T08:50:09.319Z,8.81
2023-01-11T08:51:09.320Z,8.79
2023-01-11T08:52:09.329Z,8.79
2023-01-11T08:53:10.933Z,8.83
2023-01-11T08:54:09.274Z,8.83
2023-01-11T08:55:09.280Z,8.74
2023-01-11T08:56:09.277Z,8.81
2023-01-11T08:57:09.251Z,8.76
2023-01-11T08:58:09.274Z,8.87
2023-01-11T08:59:09.226Z,8.83
2023-01-11T09:00:09.229Z,8.74
2023-01-11T09:01:09.220Z,8.77
2023-01-11T09:02:09.211Z,8.81
2023-01-11T09:03:09.218Z,8.81
2023-01-11T09:04:19.406Z,8.79
2023-01-11T09:05:11.175Z,8.86
2023-01-11T09:06:09.240Z,8.76
2023-01-11T09:07:09.147Z,8.77
2023-01-11T09:08:09.163Z,8.86
2023-01-11T09:09:09.143Z,8.91
2023-01-11T09:10:09.121Z,8.83
2023-01-11T09:11:09.136Z,8.96
2023-01-11T09:12:09.116Z,8.92
2023-01-11T09:13:09.090Z,8.80
2023-01-11T09:14:09.077Z,8.87
2023-01-11T09:15:09.082Z,8.99
2023-01-11T09:16:09.134Z,8.96
2023-01-11T09:17:09.057Z,8.99
2023-01-11T09:18:09.058Z,8.95
2023-01-11T09:19:09.048Z,8.91
2023-01-11T09:20:09.032Z,8.96
2023-01-11T09:21:09.023Z,8.99
2023-01-11T09:22:09.019Z,8.92
2023-01-11T09:23:10.014Z,8.91
2023-01-11T09:24:08.978Z,8.94
2023-01-11T09:25:08.976Z,8.95
2023-01-11T09:26:08.972Z,9.02
2023-01-11T09:27:09.062Z,9.04
2023-01-11T09:28:08.978Z,9.02
2023-01-11T09:29:08.986Z,9.02
2023-01-11T09:30:08.931Z,9.01
2023-01-11T09:31:08.992Z,9.11
2023-01-11T09:32:08.900Z,9.02
2023-01-11T09:33:08.899Z,9.08
2023-01-11T09:34:08.889Z,9.05
2023-01-11T09:35:08.882Z,8.96
2023-01-11T09:36:08.916Z,9.05
2023-01-11T09:37:08.870Z,8.99
2023-01-11T09:38:08.857Z,9.05
2023-01-11T09:39:08.843Z,9.08
2023-01-11T09:40:08.828Z,9.15
2023-01-11T09:41:08.817Z,9.10
2023-01-11T09:42:08.853Z,9.18
2023-01-11T09:43:08.804Z,9.14
2023-01-11T09:44:08.807Z,9.13
2023-01-11T09:45:08.807Z,9.20
2023-01-11T09:46:08.886Z,9.17
2023-01-11T09:47:09.807Z,9.20
2023-01-11T09:48:08.750Z,9.20
2023-01-11T09:49:08.756Z,9.18
2023-01-11T09:50:08.744Z,9.20
2023-01-11T09:51:08.727Z,9.18
2023-01-11T09:52:08.719Z,9.20
2023-01-11T09:53:08.703Z,9.18
2023-01-11T09:54:08.708Z,9.29
2023-01-11T09:55:08.672Z,9.21
2023-01-11T09:56:08.692Z,9.32
2023-01-11T09:57:08.669Z,9.33
2023-01-11T09:58:08.650Z,9.36
2023-01-11T09:59:08.664Z,9.33
2023-01-11T10:00:08.679Z,9.38
2023-01-11T10:01:08.683Z,9.26
2023-01-11T10:02:08.609Z,9.32
2023-01-11T10:03:08.615Z,9.33
2023-01-11T10:04:08.631Z,9.36
2023-01-11T10:05:08.636Z,9.36
2023-01-11T10:06:08.594Z,9.32
2023-01-11T10:07:08.587Z,9.35
2023-01-11T10:18:23.318Z,9.32
2023-01-11T10:18:28.618Z,9.42
2023-01-11T10:18:29.665Z,9.43
2023-01-11T10:18:33.480Z,9.43
2023-01-11T10:18:35.339Z,9.39
2023-01-11T10:19:33.510Z,9.38
2023-01-11T10:20:10.514Z,9.33
2023-01-11T10:21:08.422Z,9.39
2023-01-11T10:22:08.418Z,9.40
2023-01-11T10:23:08.453Z,9.38
2023-01-11T10:24:08.398Z,9.38
2023-01-11T10:25:09.140Z,9.35
2023-01-11T10:26:08.395Z,9.38
2023-01-11T10:27:08.535Z,9.47
2023-01-11T10:28:08.392Z,9.39
2023-01-11T10:29:08.352Z,9.42
2023-01-11T10:30:08.341Z,9.40
2023-01-11T10:31:08.482Z,9.42
2023-01-11T10:32:08.351Z,9.42
2023-01-11T10:33:08.314Z,9.32
2023-01-11T10:34:08.300Z,9.42
2023-01-11T10:35:08.301Z,9.36
2023-01-11T10:36:08.292Z,9.32
2023-01-11T10:37:08.287Z,9.35
2023-01-11T10:38:08.263Z,9.36
2023-01-11T10:39:08.255Z,9.33
2023-01-11T10:40:08.259Z,9.39
2023-01-11T10:41:08.292Z,9.42
2023-01-11T10:42:08.227Z,9.36
2023-01-11T10:43:08.230Z,9.33
2023-01-11T10:44:08.200Z,9.38
2023-01-11T10:45:08.204Z,9.40
2023-01-11T10:46:08.234Z,9.51
2023-01-11T10:47:08.177Z,9.42
2023-01-11T10:48:08.176Z,9.42
2023-01-11T10:49:08.194Z,9.48
2023-01-11T10:50:08.134Z,9.46
2023-01-11T10:51:08.139Z,9.31
2023-01-11T10:52:08.129Z,9.35
2023-01-11T10:53:08.132Z,9.32
2023-01-11T10:54:08.121Z,9.33
2023-01-11T10:55:08.105Z,9.48
2023-01-11T10:56:08.091Z,9.54
2023-01-11T10:57:08.215Z,9.43
2023-01-11T10:58:09.068Z,9.47
2023-01-11T10:59:08.067Z,9.42
2023-01-11T11:00:08.035Z,9.43
2023-01-11T11:01:08.139Z,9.42
2023-01-11T11:02:08.089Z,9.36
2023-01-11T11:03:08.037Z,9.42
2023-01-11T11:04:08.039Z,9.46
2023-01-11T11:05:08.003Z,9.53
2023-01-11T11:06:07.995Z,9.42
2023-01-11T11:07:07.968Z,9.42
2023-01-11T11:08:07.986Z,9.54
2023-01-11T11:09:07.963Z,9.53
2023-01-11T11:10:07.960Z,9.57
2023-01-11T11:11:07.943Z,9.53
2023-01-11T11:12:07.923Z,9.58
2023-01-11T11:13:07.939Z,9.69
2023-01-11T11:14:07.906Z,9.58
2023-01-11T11:15:07.896Z,9.60
2023-01-11T11:16:07.940Z,9.65
2023-01-11T11:17:07.888Z,9.72
2023-01-11T11:18:07.868Z,9.78
2023-01-11T11:19:07.885Z,9.69
2023-01-11T11:20:07.846Z,9.66
2023-01-11T11:21:07.854Z,9.65
2023-01-11T11:22:07.843Z,9.75
2023-01-11T11:23:07.816Z,9.74
2023-01-11T11:24:07.807Z,9.78
2023-01-11T11:25:07.815Z,9.81
2023-01-11T11:26:07.807Z,9.84
2023-01-11T11:27:07.840Z,9.86
2023-01-11T11:28:07.783Z,10.01
2023-01-11T11:29:07.776Z,9.93
2023-01-11T11:30:07.757Z,9.97
2023-01-11T11:31:07.766Z,9.90
2023-01-11T11:32:07.738Z,9.87
2023-01-11T11:33:07.740Z,9.94
2023-01-11T11:34:07.707Z,9.97
2023-01-11T11:35:07.745Z,9.97
2023-01-11T11:36:07.716Z,9.94
2023-01-11T11:37:08.685Z,9.94
2023-01-11T11:38:07.685Z,9.94
2023-01-11T11:39:07.688Z,10.04
2023-01-11T11:40:07.656Z,9.86
2023-01-11T11:41:07.664Z,9.99
2023-01-11T11:42:07.657Z,9.81
2023-01-11T11:43:07.662Z,9.78
2023-01-11T11:44:07.620Z,9.76
2023-01-11T11:45:07.639Z,9.74
2023-01-11T11:46:07.698Z,9.76
2023-01-11T11:47:07.601Z,9.68
2023-01-11T11:48:07.581Z,9.71
2023-01-11T11:49:07.593Z,9.87
2023-01-11T11:50:07.572Z,9.76
2023-01-11T11:51:07.570Z,9.78
2023-01-11T11:52:07.533Z,9.79
2023-01-11T11:53:07.530Z,9.79
2023-01-11T11:54:07.533Z,9.87
2023-01-11T11:55:07.528Z,9.83
2023-01-11T11:56:07.535Z,9.78
2023-01-11T11:57:07.537Z,9.78
2023-01-11T11:58:07.480Z,9.75
2023-01-11T11:59:07.469Z,9.83
2023-01-11T12:00:07.463Z,9.81
2023-01-11T12:01:07.455Z,9.76
2023-01-11T12:02:07.449Z,9.87
2023-01-11T12:03:07.432Z,9.90
2023-01-11T12:04:07.443Z,9.90
2023-01-11T12:05:07.575Z,10.01
2023-01-11T12:06:07.392Z,9.99
2023-01-11T12:07:07.412Z,9.87
2023-01-11T12:08:07.390Z,9.83
2023-01-11T12:09:07.379Z,9.90
2023-01-11T12:10:07.379Z,9.90
2023-01-11T12:11:07.360Z,9.93
2023-01-11T12:12:07.341Z,9.90
2023-01-11T12:13:07.339Z,9.89
2023-01-11T12:14:07.335Z,9.87
2023-01-11T12:15:07.304Z,9.96
2023-01-11T12:16:07.362Z,9.89
2023-01-11T12:17:07.306Z,9.99
2023-01-11T12:18:07.330Z,9.94
2023-01-11T12:19:07.277Z,9.97
2023-01-11T12:20:07.260Z,10.01
2023-01-11T12:21:07.256Z,9.96
2023-01-11T12:22:07.248Z,9.90
2023-01-11T12:23:07.241Z,9.86
2023-01-11T12:24:07.255Z,9.84
2023-01-11T12:25:07.260Z,9.87
2023-01-11T12:26:07.224Z,9.83
2023-01-11T12:27:07.222Z,9.90
2023-01-11T12:28:07.195Z,9.94
2023-01-11T12:29:07.189Z,9.97
2023-01-11T12:30:07.192Z,9.93
2023-01-11T12:31:07.159Z,9.94
2023-01-11T12:32:07.151Z,9.91
2023-01-11T12:33:07.134Z,9.97
2023-01-11T12:34:07.177Z,9.94
2023-01-11T12:35:07.134Z,9.91
2023-01-11T12:36:07.131Z,10.02
2023-01-11T12:37:07.115Z,10.04
2023-01-11T12:38:07.091Z,10.05
2023-01-11T12:39:07.102Z,9.97
2023-01-11T12:40:07.098Z,10.15
2023-01-11T12:41:08.628Z,10.18
2023-01-11T12:42:08.068Z,10.18
2023-01-11T12:43:07.095Z,10.08
2023-01-11T12:44:07.063Z,10.05
2023-01-11T12:45:07.019Z,10.17
2023-01-11T12:46:07.067Z,10.18
2023-01-11T12:47:07.052Z,10.26
2023-01-11T12:48:06.995Z,10.32
2023-01-11T12:49:06.997Z,10.20
2023-01-11T12:50:06.988Z,10.29
2023-01-11T12:51:06.985Z,10.27
2023-01-11T12:52:06.996Z,10.33
2023-01-11T12:53:07.043Z,10.27
2023-01-11T12:54:06.969Z,10.22
2023-01-11T12:55:06.938Z,10.33
2023-01-11T12:56:06.920Z,10.36
2023-01-11T12:57:06.930Z,10.25
2023-01-11T12:58:06.907Z,10.25
2023-01-11T12:59:06.897Z,10.29
2023-01-11T13:00:06.886Z,10.27
2023-01-11T13:01:06.957Z,10.25
2023-01-11T13:02:06.974Z,10.23
2023-01-11T13:03:06.844Z,10.29
2023-01-11T13:04:06.856Z,10.27
2023-01-11T13:05:06.855Z,10.30
2023-01-11T13:06:06.839Z,10.32
2023-01-11T13:07:06.827Z,10.33
2023-01-11T13:08:06.797Z,10.40
2023-01-11T13:09:06.810Z,10.32
2023-01-11T13:10:06.811Z,10.20
2023-01-11T13:11:06.792Z,10.27
2023-01-11T13:12:06.774Z,10.18
2023-01-11T13:13:06.769Z,10.17
2023-01-11T13:14:06.762Z,10.12
2023-01-11T13:15:06.746Z,10.27
2023-01-11T13:16:06.739Z,10.27
2023-01-11T13:17:06.804Z,10.29
2023-01-11T13:18:06.747Z,10.14
2023-01-11T13:19:06.715Z,10.20
2023-01-11T13:20:06.697Z,10.08
2023-01-11T13:21:07.057Z,10.14
2023-01-11T13:22:07.724Z,10.08